sensor_id;sensor_type;location;lat;lon;timestamp;P1;durP1;ratioP1;P2;durP2;ratioP2
43857;SDS011;29507;51.284;5.758;2023-01-16T00:01:53;3.80;;;1.05;;
43857;SDS011;29507;51.284;5.758;2023-01-16T00:04:21;5.75;;;0.90;;
43857;SDS011;29507;51.284;5.758;2023-01-16T00:06:47;1.90;;;0.68;;
43857;SDS011;29507;51.284;5.758;2023-01-16T00:09:13;4.00;;;0.90;;
43857;SDS011;29507;51.284;5.758;2023-01-16T00:11:39;2.70;;;0.80;;
43857;SDS011;29507;51.284;5.758;2023-01-16T00:14:04;4.53;;;0.80;;
43857;SDS011;29507;51.284;5.758;2023-01-16T00:16:30;5.38;;;0.68;;
43857;SDS011;29507;51.284;5.758;2023-01-16T00:18:56;8.32;;;1.13;;
43857;SDS011;29507;51.284;5.758;2023-01-16T00:21:21;2.58;;;0.60;;
43857;SDS011;29507;51.284;5.758;2023-01-16T00:26:17;3.85;;;0.70;;
43857;SDS011;29507;51.284;5.758;2023-01-16T00:28:43;5.75;;;0.77;;
43857;SDS011;29507;51.284;5.758;2023-01-16T00:31:09;4.28;;;0.70;;
43857;SDS011;29507;51.284;5.758;2023-01-16T00:33:35;4.00;;;0.80;;
43857;SDS011;29507;51.284;5.758;2023-01-16T00:36:01;5.45;;;0.75;;
43857;SDS011;29507;51.284;5.758;2023-01-16T00:38:27;4.25;;;0.55;;
43857;SDS011;29507;51.284;5.758;2023-01-16T00:40:53;4.20;;;0.50;;
43857;SDS011;29507;51.284;5.758;2023-01-16T00:43:18;4.95;;;1.00;;
43857;SDS011;29507;51.284;5.758;2023-01-16T00:45:44;4.15;;;0.88;;
43857;SDS011;29507;51.284;5.758;2023-01-16T00:48:10;2.88;;;0.60;;
43857;SDS011;29507;51.284;5.758;2023-01-16T00:50:36;3.30;;;0.73;;
43857;SDS011;29507;51.284;5.758;2023-01-16T00:53:01;4.78;;;1.00;;
43857;SDS011;29507;51.284;5.758;2023-01-16T00:55:27;5.32;;;1.25;;
43857;SDS011;29507;51.284;5.758;2023-01-16T00:57:52;3.17;;;0.73;;
43857;SDS011;29507;51.284;5.758;2023-01-16T01:00:18;2.63;;;0.70;;
43857;SDS011;29507;51.284;5.758;2023-01-16T01:02:47;2.75;;;0.90;;
43857;SDS011;29507;51.284;5.758;2023-01-16T01:05:16;5.65;;;1.27;;
43857;SDS011;29507;51.284;5.758;2023-01-16T01:07:42;8.38;;;1.30;;
43857;SDS011;29507;51.284;5.758;2023-01-16T01:10:08;4.30;;;0.80;;
43857;SDS011;29507;51.284;5.758;2023-01-16T01:12:34;6.07;;;0.82;;
43857;SDS011;29507;51.284;5.758;2023-01-16T01:15:00;7.18;;;1.05;;
43857;SDS011;29507;51.284;5.758;2023-01-16T01:17:26;7.90;;;1.38;;
43857;SDS011;29507;51.284;5.758;2023-01-16T01:19:52;5.70;;;1.02;;
43857;SDS011;29507;51.284;5.758;2023-01-16T01:22:18;8.85;;;1.23;;
43857;SDS011;29507;51.284;5.758;2023-01-16T01:24:46;2.22;;;0.63;;
43857;SDS011;29507;51.284;5.758;2023-01-16T01:27:13;3.60;;;1.60;;
43857;SDS011;29507;51.284;5.758;2023-01-16T01:29:39;2.13;;;0.90;;
43857;SDS011;29507;51.284;5.758;2023-01-16T01:32:05;9.30;;;1.10;;
43857;SDS011;29507;51.284;5.758;2023-01-16T01:34:31;5.65;;;1.00;;
43857;SDS011;29507;51.284;5.758;2023-01-16T01:36:59;10.27;;;1.08;;
43857;SDS011;29507;51.284;5.758;2023-01-16T01:39:29;7.20;;;0.90;;
43857;SDS011;29507;51.284;5.758;2023-01-16T01:41:55;7.15;;;1.50;;
43857;SDS011;29507;51.284;5.758;2023-01-16T01:44:55;6.55;;;1.13;;
43857;SDS011;29507;51.284;5.758;2023-01-16T01:47:32;3.60;;;0.77;;
43857;SDS011;29507;51.284;5.758;2023-01-16T01:50:03;6.85;;;0.90;;
43857;SDS011;29507;51.284;5.758;2023-01-16T01:52:36;7.30;;;1.08;;
43857;SDS011;29507;51.284;5.758;2023-01-16T01:55:03;4.10;;;0.80;;
43857;SDS011;29507;51.284;5.758;2023-01-16T01:57:33;6.03;;;1.77;;
43857;SDS011;29507;51.284;5.758;2023-01-16T02:00:13;5.95;;;0.93;;
43857;SDS011;29507;51.284;5.758;2023-01-16T02:02:52;3.20;;;1.15;;
43857;SDS011;29507;51.284;5.758;2023-01-16T02:05:28;4.03;;;1.10;;
43857;SDS011;29507;51.284;5.758;2023-01-16T02:07:57;2.72;;;0.80;;
43857;SDS011;29507;51.284;5.758;2023-01-16T02:10:41;6.68;;;1.45;;
43857;SDS011;29507;51.284;5.758;2023-01-16T02:13:16;6.70;;;1.25;;
43857;SDS011;29507;51.284;5.758;2023-01-16T02:15:42;4.28;;;1.25;;
43857;SDS011;29507;51.284;5.758;2023-01-16T02:18:27;2.83;;;0.90;;
43857;SDS011;29507;51.284;5.758;2023-01-16T02:21:21;4.45;;;0.70;;
43857;SDS011;29507;51.284;5.758;2023-01-16T02:27:00;6.93;;;1.08;;
43857;SDS011;29507;51.284;5.758;2023-01-16T02:30:00;4.65;;;1.63;;
43857;SDS011;29507;51.284;5.758;2023-01-16T02:37:56;4.45;;;1.20;;
43857;SDS011;29507;51.284;5.758;2023-01-16T02:40:35;5.95;;;0.88;;
43857;SDS011;29507;51.284;5.758;2023-01-16T02:48:45;5.22;;;0.98;;
43857;SDS011;29507;51.284;5.758;2023-01-16T02:51:34;7.20;;;1.05;;
43857;SDS011;29507;51.284;5.758;2023-01-16T02:54:16;6.53;;;1.02;;
43857;SDS011;29507;51.284;5.758;2023-01-16T02:56:48;2.42;;;0.77;;
43857;SDS011;29507;51.284;5.758;2023-01-16T02:59:22;4.75;;;1.17;;
43857;SDS011;29507;51.284;5.758;2023-01-16T03:01:49;4.13;;;1.27;;
43857;SDS011;29507;51.284;5.758;2023-01-16T03:04:37;6.97;;;1.52;;
43857;SDS011;29507;51.284;5.758;2023-01-16T03:17:58;9.05;;;1.67;;
43857;SDS011;29507;51.284;5.758;2023-01-16T03:26:30;2.50;;;0.80;;
43857;SDS011;29507;51.284;5.758;2023-01-16T03:29:10;3.65;;;0.80;;
43857;SDS011;29507;51.284;5.758;2023-01-16T03:31:48;3.72;;;0.70;;
43857;SDS011;29507;51.284;5.758;2023-01-16T03:34:24;4.75;;;0.88;;
43857;SDS011;29507;51.284;5.758;2023-01-16T03:39:49;5.60;;;1.00;;
43857;SDS011;29507;51.284;5.758;2023-01-16T03:42:23;4.18;;;0.98;;
43857;SDS011;29507;51.284;5.758;2023-01-16T03:44:55;9.98;;;1.02;;
43857;SDS011;29507;51.284;5.758;2023-01-16T03:47:27;5.32;;;1.00;;
43857;SDS011;29507;51.284;5.758;2023-01-16T03:49:59;5.60;;;0.95;;
43857;SDS011;29507;51.284;5.758;2023-01-16T03:52:33;1.17;;;0.40;;
43857;SDS011;29507;51.284;5.758;2023-01-16T03:55:04;2.97;;;0.85;;
43857;SDS011;29507;51.284;5.758;2023-01-16T03:57:31;5.53;;;0.88;;
43857;SDS011;29507;51.284;5.758;2023-01-16T04:00:04;3.63;;;0.80;;
43857;SDS011;29507;51.284;5.758;2023-01-16T04:02:32;3.15;;;0.50;;
43857;SDS011;29507;51.284;5.758;2023-01-16T04:05:10;2.60;;;0.65;;
43857;SDS011;29507;51.284;5.758;2023-01-16T04:07:47;2.20;;;0.73;;
43857;SDS011;29507;51.284;5.758;2023-01-16T04:10:25;2.28;;;0.68;;
43857;SDS011;29507;51.284;5.758;2023-01-16T04:13:17;4.30;;;0.55;;
43857;SDS011;29507;51.284;5.758;2023-01-16T04:15:44;5.13;;;0.73;;
43857;SDS011;29507;51.284;5.758;2023-01-16T04:18:14;5.65;;;0.95;;
43857;SDS011;29507;51.284;5.758;2023-01-16T04:20:41;5.05;;;0.70;;
43857;SDS011;29507;51.284;5.758;2023-01-16T04:23:11;7.70;;;0.70;;
43857;SDS011;29507;51.284;5.758;2023-01-16T04:25:38;7.03;;;1.13;;
43857;SDS011;29507;51.284;5.758;2023-01-16T04:28:04;2.88;;;0.68;;
43857;SDS011;29507;51.284;5.758;2023-01-16T04:30:30;2.17;;;0.70;;
43857;SDS011;29507;51.284;5.758;2023-01-16T04:32:55;4.05;;;0.60;;
43857;SDS011;29507;51.284;5.758;2023-01-16T04:35:21;2.55;;;0.73;;
43857;SDS011;29507;51.284;5.758;2023-01-16T04:37:47;3.05;;;0.60;;
43857;SDS011;29507;51.284;5.758;2023-01-16T04:40:13;9.85;;;0.93;;
43857;SDS011;29507;51.284;5.758;2023-01-16T04:42:38;3.55;;;0.90;;
43857;SDS011;29507;51.284;5.758;2023-01-16T04:45:04;5.13;;;0.95;;
43857;SDS011;29507;51.284;5.758;2023-01-16T04:47:30;3.58;;;0.75;;
43857;SDS011;29507;51.284;5.758;2023-01-16T04:49:56;2.40;;;0.68;;
43857;SDS011;29507;51.284;5.758;2023-01-16T04:52:22;3.45;;;0.60;;
43857;SDS011;29507;51.284;5.758;2023-01-16T04:54:47;3.00;;;0.73;;
43857;SDS011;29507;51.284;5.758;2023-01-16T04:57:13;2.72;;;1.00;;
43857;SDS011;29507;51.284;5.758;2023-01-16T04:59:39;2.90;;;0.50;;
43857;SDS011;29507;51.284;5.758;2023-01-16T05:02:04;2.88;;;0.60;;
43857;SDS011;29507;51.284;5.758;2023-01-16T05:04:30;1.02;;;0.60;;
43857;SDS011;29507;51.284;5.758;2023-01-16T05:06:56;8.18;;;1.20;;
43857;SDS011;29507;51.284;5.758;2023-01-16T05:09:21;3.45;;;0.55;;
43857;SDS011;29507;51.284;5.758;2023-01-16T05:11:47;3.88;;;0.95;;
43857;SDS011;29507;51.284;5.758;2023-01-16T05:14:13;7.93;;;1.15;;
43857;SDS011;29507;51.284;5.758;2023-01-16T05:16:39;4.40;;;0.60;;
43857;SDS011;29507;51.284;5.758;2023-01-16T05:19:08;5.32;;;0.70;;
43857;SDS011;29507;51.284;5.758;2023-01-16T05:21:34;5.65;;;0.80;;
43857;SDS011;29507;51.284;5.758;2023-01-16T05:24:00;3.33;;;0.70;;
43857;SDS011;29507;51.284;5.758;2023-01-16T05:26:26;4.68;;;1.02;;
43857;SDS011;29507;51.284;5.758;2023-01-16T05:28:51;3.95;;;1.02;;
43857;SDS011;29507;51.284;5.758;2023-01-16T05:31:17;7.13;;;0.75;;
43857;SDS011;29507;51.284;5.758;2023-01-16T05:33:43;3.55;;;0.45;;
43857;SDS011;29507;51.284;5.758;2023-01-16T05:36:09;6.13;;;0.55;;
43857;SDS011;29507;51.284;5.758;2023-01-16T05:38:35;2.60;;;0.60;;
43857;SDS011;29507;51.284;5.758;2023-01-16T05:41:02;3.03;;;0.65;;
43857;SDS011;29507;51.284;5.758;2023-01-16T05:43:27;0.93;;;0.40;;
43857;SDS011;29507;51.284;5.758;2023-01-16T05:45:53;1.77;;;0.22;;
43857;SDS011;29507;51.284;5.758;2023-01-16T05:48:19;5.20;;;1.00;;
43857;SDS011;29507;51.284;5.758;2023-01-16T05:50:44;0.52;;;0.47;;
43857;SDS011;29507;51.284;5.758;2023-01-16T05:53:10;2.78;;;0.52;;
43857;SDS011;29507;51.284;5.758;2023-01-16T05:55:40;3.45;;;0.65;;
43857;SDS011;29507;51.284;5.758;2023-01-16T05:58:08;1.42;;;0.40;;
43857;SDS011;29507;51.284;5.758;2023-01-16T06:00:35;1.85;;;0.45;;
43857;SDS011;29507;51.284;5.758;2023-01-16T06:03:01;4.30;;;0.73;;
43857;SDS011;29507;51.284;5.758;2023-01-16T06:05:26;3.08;;;0.77;;
43857;SDS011;29507;51.284;5.758;2023-01-16T06:07:55;2.42;;;0.68;;
43857;SDS011;29507;51.284;5.758;2023-01-16T06:10:21;2.30;;;0.52;;
43857;SDS011;29507;51.284;5.758;2023-01-16T06:12:47;3.35;;;0.40;;
43857;SDS011;29507;51.284;5.758;2023-01-16T06:15:13;1.15;;;0.40;;
43857;SDS011;29507;51.284;5.758;2023-01-16T06:17:39;1.60;;;0.60;;
43857;SDS011;29507;51.284;5.758;2023-01-16T06:20:04;1.92;;;0.60;;
43857;SDS011;29507;51.284;5.758;2023-01-16T06:22:30;4.57;;;0.85;;
43857;SDS011;29507;51.284;5.758;2023-01-16T06:24:56;1.83;;;0.40;;
43857;SDS011;29507;51.284;5.758;2023-01-16T06:27:21;2.70;;;0.52;;
43857;SDS011;29507;51.284;5.758;2023-01-16T06:29:47;2.60;;;0.60;;
43857;SDS011;29507;51.284;5.758;2023-01-16T06:32:13;3.00;;;0.50;;
43857;SDS011;29507;51.284;5.758;2023-01-16T06:34:41;2.50;;;0.60;;
43857;SDS011;29507;51.284;5.758;2023-01-16T06:37:09;2.88;;;0.75;;
43857;SDS011;29507;51.284;5.758;2023-01-16T06:39:35;4.88;;;0.47;;
43857;SDS011;29507;51.284;5.758;2023-01-16T06:42:01;2.30;;;0.95;;
43857;SDS011;29507;51.284;5.758;2023-01-16T06:44:29;3.13;;;0.63;;
43857;SDS011;29507;51.284;5.758;2023-01-16T06:46:59;3.85;;;0.50;;
43857;SDS011;29507;51.284;5.758;2023-01-16T06:49:25;1.45;;;0.60;;
43857;SDS011;29507;51.284;5.758;2023-01-16T06:51:51;4.85;;;0.50;;
43857;SDS011;29507;51.284;5.758;2023-01-16T06:54:16;5.38;;;0.68;;
43857;SDS011;29507;51.284;5.758;2023-01-16T06:56:42;3.80;;;0.80;;
43857;SDS011;29507;51.284;5.758;2023-01-16T06:59:08;2.08;;;0.57;;
43857;SDS011;29507;51.284;5.758;2023-01-16T07:01:33;2.65;;;0.50;;
43857;SDS011;29507;51.284;5.758;2023-01-16T07:03:59;6.78;;;0.98;;
43857;SDS011;29507;51.284;5.758;2023-01-16T07:06:25;3.22;;;0.68;;
43857;SDS011;29507;51.284;5.758;2023-01-16T07:08:51;1.90;;;0.75;;
43857;SDS011;29507;51.284;5.758;2023-01-16T07:11:17;2.83;;;0.63;;
43857;SDS011;29507;51.284;5.758;2023-01-16T07:13:43;2.88;;;0.85;;
43857;SDS011;29507;51.284;5.758;2023-01-16T07:16:10;1.45;;;0.45;;
43857;SDS011;29507;51.284;5.758;2023-01-16T07:18:55;6.03;;;0.52;;
43857;SDS011;29507;51.284;5.758;2023-01-16T07:21:39;1.50;;;0.57;;
43857;SDS011;29507;51.284;5.758;2023-01-16T07:24:26;0.85;;;0.30;;
43857;SDS011;29507;51.284;5.758;2023-01-16T07:26:55;1.35;;;0.40;;
43857;SDS011;29507;51.284;5.758;2023-01-16T07:29:24;4.15;;;0.85;;
43857;SDS011;29507;51.284;5.758;2023-01-16T07:31:52;1.93;;;0.60;;
43857;SDS011;29507;51.284;5.758;2023-01-16T07:34:18;3.58;;;0.93;;
43857;SDS011;29507;51.284;5.758;2023-01-16T07:36:44;1.50;;;0.55;;
43857;SDS011;29507;51.284;5.758;2023-01-16T07:39:09;1.17;;;0.47;;
43857;SDS011;29507;51.284;5.758;2023-01-16T07:41:35;3.47;;;0.60;;
43857;SDS011;29507;51.284;5.758;2023-01-16T07:44:00;4.75;;;0.80;;
43857;SDS011;29507;51.284;5.758;2023-01-16T07:46:26;0.88;;;0.40;;
43857;SDS011;29507;51.284;5.758;2023-01-16T07:48:52;3.47;;;0.75;;
43857;SDS011;29507;51.284;5.758;2023-01-16T07:51:20;4.10;;;0.88;;
43857;SDS011;29507;51.284;5.758;2023-01-16T07:53:45;2.88;;;0.75;;
43857;SDS011;29507;51.284;5.758;2023-01-16T07:56:11;3.08;;;0.43;;
43857;SDS011;29507;51.284;5.758;2023-01-16T07:58:37;3.38;;;0.60;;
43857;SDS011;29507;51.284;5.758;2023-01-16T08:01:04;1.00;;;0.40;;
43857;SDS011;29507;51.284;5.758;2023-01-16T08:03:31;3.42;;;0.98;;
43857;SDS011;29507;51.284;5.758;2023-01-16T08:05:56;1.13;;;0.43;;
43857;SDS011;29507;51.284;5.758;2023-01-16T08:08:22;2.13;;;0.35;;
43857;SDS011;29507;51.284;5.758;2023-01-16T08:10:52;2.58;;;0.60;;
43857;SDS011;29507;51.284;5.758;2023-01-16T08:13:19;2.30;;;0.60;;
43857;SDS011;29507;51.284;5.758;2023-01-16T08:15:45;2.25;;;0.60;;
43857;SDS011;29507;51.284;5.758;2023-01-16T08:18:11;1.52;;;0.50;;
43857;SDS011;29507;51.284;5.758;2023-01-16T08:20:38;3.85;;;1.23;;
43857;SDS011;29507;51.284;5.758;2023-01-16T08:23:04;3.95;;;0.50;;
43857;SDS011;29507;51.284;5.758;2023-01-16T08:25:29;2.75;;;0.85;;
43857;SDS011;29507;51.284;5.758;2023-01-16T08:27:55;5.45;;;0.82;;
43857;SDS011;29507;51.284;5.758;2023-01-16T08:30:20;4.00;;;0.98;;
43857;SDS011;29507;51.284;5.758;2023-01-16T08:32:46;2.22;;;0.70;;
43857;SDS011;29507;51.284;5.758;2023-01-16T08:35:12;3.08;;;0.55;;
43857;SDS011;29507;51.284;5.758;2023-01-16T08:37:38;0.77;;;0.40;;
43857;SDS011;29507;51.284;5.758;2023-01-16T08:40:04;1.80;;;0.47;;
43857;SDS011;29507;51.284;5.758;2023-01-16T08:42:30;3.08;;;0.68;;
43857;SDS011;29507;51.284;5.758;2023-01-16T08:45:15;2.85;;;0.50;;
43857;SDS011;29507;51.284;5.758;2023-01-16T08:47:59;0.52;;;0.38;;
43857;SDS011;29507;51.284;5.758;2023-01-16T08:50:44;0.43;;;0.22;;
43857;SDS011;29507;51.284;5.758;2023-01-16T08:53:30;0.60;;;0.30;;
43857;SDS011;29507;51.284;5.758;2023-01-16T08:55:56;0.55;;;0.25;;
43857;SDS011;29507;51.284;5.758;2023-01-16T08:58:21;1.17;;;0.38;;
43857;SDS011;29507;51.284;5.758;2023-01-16T09:00:47;0.90;;;0.20;;
43857;SDS011;29507;51.284;5.758;2023-01-16T09:03:14;0.47;;;0.30;;
43857;SDS011;29507;51.284;5.758;2023-01-16T09:05:42;1.40;;;0.38;;
43857;SDS011;29507;51.284;5.758;2023-01-16T09:08:08;0.50;;;0.25;;
43857;SDS011;29507;51.284;5.758;2023-01-16T09:10:34;0.47;;;0.10;;
43857;SDS011;29507;51.284;5.758;2023-01-16T09:12:59;0.77;;;0.25;;
43857;SDS011;29507;51.284;5.758;2023-01-16T09:15:44;0.65;;;0.30;;
43857;SDS011;29507;51.284;5.758;2023-01-16T09:18:09;0.45;;;0.30;;
43857;SDS011;29507;51.284;5.758;2023-01-16T09:20:35;0.40;;;0.30;;
43857;SDS011;29507;51.284;5.758;2023-01-16T09:23:01;0.50;;;0.30;;
43857;SDS011;29507;51.284;5.758;2023-01-16T09:25:28;0.45;;;0.20;;
43857;SDS011;29507;51.284;5.758;2023-01-16T09:27:54;0.52;;;0.25;;
43857;SDS011;29507;51.284;5.758;2023-01-16T09:30:20;0.28;;;0.20;;
43857;SDS011;29507;51.284;5.758;2023-01-16T09:32:46;0.43;;;0.20;;
43857;SDS011;29507;51.284;5.758;2023-01-16T09:35:12;0.80;;;0.32;;
43857;SDS011;29507;51.284;5.758;2023-01-16T09:37:39;0.15;;;0.15;;
43857;SDS011;29507;51.284;5.758;2023-01-16T09:40:11;0.50;;;0.22;;
43857;SDS011;29507;51.284;5.758;2023-01-16T09:45:40;3.00;;;0.35;;
43857;SDS011;29507;51.284;5.758;2023-01-16T09:48:54;1.50;;;0.40;;
43857;SDS011;29507;51.284;5.758;2023-01-16T09:51:09;0.20;;;0.20;;
43857;SDS011;29507;51.284;5.758;2023-01-16T09:53:46;1.58;;;0.30;;
43857;SDS011;29507;51.284;5.758;2023-01-16T09:56:39;0.68;;;0.30;;
43857;SDS011;29507;51.284;5.758;2023-01-16T09:59:38;0.22;;;0.13;;
43857;SDS011;29507;51.284;5.758;2023-01-16T10:04:51;0.52;;;0.30;;
43857;SDS011;29507;51.284;5.758;2023-01-16T10:18:49;3.17;;;0.20;;
43857;SDS011;29507;51.284;5.758;2023-01-16T10:32:33;2.45;;;0.45;;
43857;SDS011;29507;51.284;5.758;2023-01-16T10:37:48;0.82;;;0.55;;
43857;SDS011;29507;51.284;5.758;2023-01-16T10:42:54;1.35;;;0.30;;
43857;SDS011;29507;51.284;5.758;2023-01-16T10:45:45;0.35;;;0.20;;
43857;SDS011;29507;51.284;5.758;2023-01-16T10:51:47;0.63;;;0.30;;
43857;SDS011;29507;51.284;5.758;2023-01-16T10:54:13;0.63;;;0.20;;
43857;SDS011;29507;51.284;5.758;2023-01-16T10:56:40;1.02;;;0.30;;
43857;SDS011;29507;51.284;5.758;2023-01-16T10:59:07;2.90;;;0.40;;
43857;SDS011;29507;51.284;5.758;2023-01-16T11:01:35;0.43;;;0.22;;
43857;SDS011;29507;51.284;5.758;2023-01-16T11:04:04;0.75;;;0.30;;
43857;SDS011;29507;51.284;5.758;2023-01-16T11:06:30;1.10;;;0.20;;
43857;SDS011;29507;51.284;5.758;2023-01-16T11:09:01;0.63;;;0.30;;
43857;SDS011;29507;51.284;5.758;2023-01-16T11:11:47;0.32;;;0.22;;
43857;SDS011;29507;51.284;5.758;2023-01-16T11:14:38;1.05;;;0.50;;
43857;SDS011;29507;51.284;5.758;2023-01-16T11:17:28;1.40;;;0.30;;
43857;SDS011;29507;51.284;5.758;2023-01-16T11:20:25;0.32;;;0.30;;
43857;SDS011;29507;51.284;5.758;2023-01-16T11:22:55;0.20;;;0.20;;
43857;SDS011;29507;51.284;5.758;2023-01-16T11:25:23;0.57;;;0.30;;
43857;SDS011;29507;51.284;5.758;2023-01-16T11:27:51;0.20;;;0.20;;
43857;SDS011;29507;51.284;5.758;2023-01-16T11:30:21;0.47;;;0.30;;
43857;SDS011;29507;51.284;5.758;2023-01-16T11:32:52;0.68;;;0.30;;
43857;SDS011;29507;51.284;5.758;2023-01-16T11:35:19;0.20;;;0.17;;
43857;SDS011;29507;51.284;5.758;2023-01-16T11:37:48;0.28;;;0.22;;
43857;SDS011;29507;51.284;5.758;2023-01-16T11:40:17;0.40;;;0.22;;
43857;SDS011;29507;51.284;5.758;2023-01-16T11:42:55;0.32;;;0.20;;
43857;SDS011;29507;51.284;5.758;2023-01-16T11:45:47;0.50;;;0.20;;
43857;SDS011;29507;51.284;5.758;2023-01-16T11:48:35;0.20;;;0.20;;
43857;SDS011;29507;51.284;5.758;2023-01-16T11:51:02;1.15;;;0.40;;
43857;SDS011;29507;51.284;5.758;2023-01-16T11:53:31;1.13;;;0.30;;
43857;SDS011;29507;51.284;5.758;2023-01-16T11:58:46;0.40;;;0.20;;
43857;SDS011;29507;51.284;5.758;2023-01-16T12:08:08;0.50;;;0.20;;
43857;SDS011;29507;51.284;5.758;2023-01-16T12:10:41;1.55;;;0.20;;
43857;SDS011;29507;51.284;5.758;2023-01-16T12:13:17;0.52;;;0.20;;
43857;SDS011;29507;51.284;5.758;2023-01-16T12:16:24;0.60;;;0.30;;
43857;SDS011;29507;51.284;5.758;2023-01-16T12:26:55;0.10;;;0.10;;
43857;SDS011;29507;51.284;5.758;2023-01-16T12:32:46;0.28;;;0.20;;
43857;SDS011;29507;51.284;5.758;2023-01-16T12:38:04;0.40;;;0.20;;
43857;SDS011;29507;51.284;5.758;2023-01-16T12:46:39;0.65;;;0.22;;
43857;SDS011;29507;51.284;5.758;2023-01-16T12:49:40;0.75;;;0.45;;
43857;SDS011;29507;51.284;5.758;2023-01-16T13:03:42;0.20;;;0.20;;
43857;SDS011;29507;51.284;5.758;2023-01-16T13:06:13;0.70;;;0.40;;
43857;SDS011;29507;51.284;5.758;2023-01-16T13:08:47;1.20;;;0.20;;
43857;SDS011;29507;51.284;5.758;2023-01-16T13:11:25;0.55;;;0.22;;
43857;SDS011;29507;51.284;5.758;2023-01-16T13:14:15;0.30;;;0.20;;
43857;SDS011;29507;51.284;5.758;2023-01-16T13:16:44;0.52;;;0.20;;
43857;SDS011;29507;51.284;5.758;2023-01-16T13:19:26;0.40;;;0.20;;
43857;SDS011;29507;51.284;5.758;2023-01-16T13:24:36;0.63;;;0.20;;
43857;SDS011;29507;51.284;5.758;2023-01-16T13:27:13;0.30;;;0.20;;
43857;SDS011;29507;51.284;5.758;2023-01-16T13:29:53;0.15;;;0.10;;
43857;SDS011;29507;51.284;5.758;2023-01-16T13:32:26;0.50;;;0.20;;
43857;SDS011;29507;51.284;5.758;2023-01-16T13:35:09;0.43;;;0.30;;
43857;SDS011;29507;51.284;5.758;2023-01-16T13:37:44;0.13;;;0.13;;
43857;SDS011;29507;51.284;5.758;2023-01-16T13:40:45;0.85;;;0.20;;
43857;SDS011;29507;51.284;5.758;2023-01-16T13:43:33;0.20;;;0.20;;
43857;SDS011;29507;51.284;5.758;2023-01-16T13:46:24;0.28;;;0.20;;
43857;SDS011;29507;51.284;5.758;2023-01-16T13:48:56;0.20;;;0.15;;
43857;SDS011;29507;51.284;5.758;2023-01-16T13:51:27;0.35;;;0.20;;
43857;SDS011;29507;51.284;5.758;2023-01-16T13:54:00;0.28;;;0.20;;
43857;SDS011;29507;51.284;5.758;2023-01-16T13:56:30;0.20;;;0.20;;
43857;SDS011;29507;51.284;5.758;2023-01-16T13:59:01;1.55;;;0.30;;
43857;SDS011;29507;51.284;5.758;2023-01-16T14:06:52;0.47;;;0.20;;
43857;SDS011;29507;51.284;5.758;2023-01-16T14:12:44;0.40;;;0.20;;
43857;SDS011;29507;51.284;5.758;2023-01-16T14:15:53;0.45;;;0.17;;
43857;SDS011;29507;51.284;5.758;2023-01-16T14:21:20;1.00;;;0.20;;
43857;SDS011;29507;51.284;5.758;2023-01-16T14:23:54;0.73;;;0.30;;
43857;SDS011;29507;51.284;5.758;2023-01-16T14:32:02;0.30;;;0.20;;
43857;SDS011;29507;51.284;5.758;2023-01-16T14:34:34;0.68;;;0.20;;
43857;SDS011;29507;51.284;5.758;2023-01-16T14:37:10;0.80;;;0.38;;
43857;SDS011;29507;51.284;5.758;2023-01-16T14:39:51;0.55;;;0.30;;
43857;SDS011;29507;51.284;5.758;2023-01-16T14:42:18;0.55;;;0.30;;
43857;SDS011;29507;51.284;5.758;2023-01-16T14:56:49;1.00;;;0.30;;
43857;SDS011;29507;51.284;5.758;2023-01-16T15:05:02;0.82;;;0.32;;
43857;SDS011;29507;51.284;5.758;2023-01-16T15:10:37;0.63;;;0.22;;
43857;SDS011;29507;51.284;5.758;2023-01-16T15:13:11;2.30;;;0.43;;
43857;SDS011;29507;51.284;5.758;2023-01-16T15:15:37;1.08;;;0.50;;
43857;SDS011;29507;51.284;5.758;2023-01-16T15:18:08;0.40;;;0.22;;
43857;SDS011;29507;51.284;5.758;2023-01-16T15:20:57;1.02;;;0.47;;
43857;SDS011;29507;51.284;5.758;2023-01-16T15:23:44;1.02;;;0.25;;
43857;SDS011;29507;51.284;5.758;2023-01-16T15:28:52;1.20;;;0.45;;
43857;SDS011;29507;51.284;5.758;2023-01-16T15:36:56;1.42;;;0.40;;
43857;SDS011;29507;51.284;5.758;2023-01-16T15:45:23;0.40;;;0.30;;
43857;SDS011;29507;51.284;5.758;2023-01-16T15:51:01;0.80;;;0.40;;
43857;SDS011;29507;51.284;5.758;2023-01-16T15:53:43;0.55;;;0.40;;
43857;SDS011;29507;51.284;5.758;2023-01-16T15:58:58;2.05;;;0.70;;
43857;SDS011;29507;51.284;5.758;2023-01-16T16:01:33;1.23;;;0.45;;
43857;SDS011;29507;51.284;5.758;2023-01-16T16:04:00;2.15;;;0.50;;
43857;SDS011;29507;51.284;5.758;2023-01-16T16:06:28;0.57;;;0.30;;
43857;SDS011;29507;51.284;5.758;2023-01-16T16:08:55;1.80;;;0.50;;
43857;SDS011;29507;51.284;5.758;2023-01-16T16:11:29;1.67;;;0.50;;
43857;SDS011;29507;51.284;5.758;2023-01-16T16:14:16;1.10;;;0.43;;
43857;SDS011;29507;51.284;5.758;2023-01-16T16:17:19;1.50;;;0.60;;
43857;SDS011;29507;51.284;5.758;2023-01-16T16:23:05;1.13;;;0.40;;
43857;SDS011;29507;51.284;5.758;2023-01-16T16:28:28;2.08;;;0.43;;
43857;SDS011;29507;51.284;5.758;2023-01-16T16:36:28;2.05;;;0.60;;
43857;SDS011;29507;51.284;5.758;2023-01-16T16:38:55;1.92;;;0.70;;
43857;SDS011;29507;51.284;5.758;2023-01-16T16:47:29;1.23;;;0.52;;
43857;SDS011;29507;51.284;5.758;2023-01-16T16:49:56;1.48;;;0.80;;
43857;SDS011;29507;51.284;5.758;2023-01-16T16:55:07;3.97;;;1.25;;
43857;SDS011;29507;51.284;5.758;2023-01-16T16:57:55;3.03;;;1.45;;
43857;SDS011;29507;51.284;5.758;2023-01-16T17:00:26;2.17;;;0.90;;
43857;SDS011;29507;51.284;5.758;2023-01-16T17:02:57;2.97;;;1.20;;
43857;SDS011;29507;51.284;5.758;2023-01-16T17:05:46;2.70;;;1.00;;
43857;SDS011;29507;51.284;5.758;2023-01-16T17:08:24;1.55;;;0.98;;
43857;SDS011;29507;51.284;5.758;2023-01-16T17:10:54;1.33;;;0.70;;
43857;SDS011;29507;51.284;5.758;2023-01-16T17:13:20;1.10;;;0.60;;
43857;SDS011;29507;51.284;5.758;2023-01-16T17:15:48;1.65;;;0.75;;
43857;SDS011;29507;51.284;5.758;2023-01-16T17:18:17;1.23;;;0.50;;
43857;SDS011;29507;51.284;5.758;2023-01-16T17:20:43;1.77;;;0.70;;
43857;SDS011;29507;51.284;5.758;2023-01-16T17:23:11;1.48;;;0.63;;
43857;SDS011;29507;51.284;5.758;2023-01-16T17:25:38;1.63;;;0.77;;
43857;SDS011;29507;51.284;5.758;2023-01-16T17:28:05;2.03;;;0.80;;
43857;SDS011;29507;51.284;5.758;2023-01-16T17:30:31;1.90;;;0.60;;
43857;SDS011;29507;51.284;5.758;2023-01-16T17:33:05;2.00;;;0.80;;
43857;SDS011;29507;51.284;5.758;2023-01-16T17:35:39;1.40;;;0.63;;
43857;SDS011;29507;51.284;5.758;2023-01-16T17:38:10;2.25;;;0.93;;
43857;SDS011;29507;51.284;5.758;2023-01-16T17:40:37;1.75;;;0.75;;
43857;SDS011;29507;51.284;5.758;2023-01-16T17:43:03;2.50;;;1.05;;
43857;SDS011;29507;51.284;5.758;2023-01-16T17:45:47;4.25;;;1.00;;
43857;SDS011;29507;51.284;5.758;2023-01-16T17:48:20;3.13;;;1.45;;
43857;SDS011;29507;51.284;5.758;2023-01-16T17:50:47;3.08;;;1.02;;
43857;SDS011;29507;51.284;5.758;2023-01-16T17:53:14;2.13;;;1.10;;
43857;SDS011;29507;51.284;5.758;2023-01-16T17:55:43;2.67;;;1.17;;
43857;SDS011;29507;51.284;5.758;2023-01-16T17:58:32;3.45;;;1.27;;
43857;SDS011;29507;51.284;5.758;2023-01-16T18:01:32;2.10;;;0.85;;
43857;SDS011;29507;51.284;5.758;2023-01-16T18:04:02;2.97;;;1.05;;
43857;SDS011;29507;51.284;5.758;2023-01-16T18:06:38;1.40;;;0.77;;
43857;SDS011;29507;51.284;5.758;2023-01-16T18:09:05;0.90;;;0.50;;
43857;SDS011;29507;51.284;5.758;2023-01-16T18:11:33;1.77;;;0.70;;
43857;SDS011;29507;51.284;5.758;2023-01-16T18:14:19;1.40;;;0.77;;
43857;SDS011;29507;51.284;5.758;2023-01-16T18:17:04;1.92;;;0.90;;
43857;SDS011;29507;51.284;5.758;2023-01-16T18:19:49;2.00;;;1.08;;
43857;SDS011;29507;51.284;5.758;2023-01-16T18:22:26;2.30;;;1.33;;
43857;SDS011;29507;51.284;5.758;2023-01-16T18:24:54;3.17;;;1.50;;
43857;SDS011;29507;51.284;5.758;2023-01-16T18:27:20;4.60;;;1.77;;
43857;SDS011;29507;51.284;5.758;2023-01-16T18:29:46;3.53;;;2.00;;